createdAt,value
2023-10-03T00:00:14.379Z,101337.53
2023-10-03T00:02:41.746Z,101337.69
2023-10-03T00:05:09.542Z,101330.53
2023-10-03T00:07:36.848Z,101332.50
2023-10-03T00:10:06.867Z,101324.81
2023-10-03T00:12:34.250Z,101327.63
2023-10-03T00:15:01.787Z,101325.16
2023-10-03T00:17:29.141Z,101320.28
2023-10-03T00:19:56.457Z,101321.63
2023-10-03T00:22:23.746Z,101310.47
2023-10-03T00:24:51.019Z,101315.13
2023-10-03T00:27:19.716Z,101309.47
2023-10-03T00:29:47.309Z,101309.44
2023-10-03T00:32:14.655Z,101306.44
2023-10-03T00:34:42.064Z,101297.75
2023-10-03T00:37:09.324Z,101294.09
2023-10-03T00:39:36.564Z,101288.84
2023-10-03T00:42:03.963Z,101288.03
2023-10-03T00:44:32.683Z,101277.84
2023-10-03T00:46:59.943Z,101276.22
2023-10-03T00:49:27.927Z,101272.06
2023-10-03T00:51:56.481Z,101261.53
2023-10-03T00:54:24.310Z,101256.63
2023-10-03T00:56:51.664Z,101247.97
2023-10-03T00:59:19.051Z,101246.78
2023-10-03T01:01:47.839Z,101243.63
2023-10-03T01:04:15.274Z,101240.78
2023-10-03T01:06:43.940Z,101240.28
2023-10-03T01:09:11.196Z,101243.09
2023-10-03T01:11:38.554Z,101231.94
2023-10-03T01:14:05.827Z,101232.75
2023-10-03T01:16:33.264Z,101224.38
2023-10-03T01:19:02.695Z,101219.56
2023-10-03T01:21:30.084Z,101216.53
2023-10-03T01:23:58.756Z,101211.38
2023-10-03T01:26:26.157Z,101218.34
2023-10-03T01:28:53.659Z,101205.13
2023-10-03T01:31:20.932Z,101210.63
2023-10-03T01:33:48.200Z,101203.47
2023-10-03T01:36:15.436Z,101205.31
2023-10-03T01:38:42.770Z,101195.13
2023-10-03T01:41:11.474Z,101188.13
2023-10-03T01:43:38.734Z,101189.81
2023-10-03T01:46:06.018Z,101182.50
2023-10-03T01:48:33.313Z,101185.84
2023-10-03T01:51:00.672Z,101176.47
2023-10-03T01:53:27.963Z,101173.81
2023-10-03T01:55:55.376Z,101168.59
2023-10-03T01:58:24.049Z,101176.25
2023-10-03T02:00:51.410Z,101172.78
2023-10-03T02:03:19.217Z,101165.44
2023-10-03T02:05:46.917Z,101159.25
2023-10-03T02:08:14.279Z,101162.56
2023-10-03T02:10:41.664Z,101158.41
2023-10-03T02:13:08.975Z,101168.69
2023-10-03T02:15:37.678Z,101152.97
2023-10-03T02:18:05.546Z,101163.81
2023-10-03T02:20:37.244Z,101154.97
2023-10-03T02:23:04.477Z,101153.84
2023-10-03T02:25:32.173Z,101153.31
2023-10-03T02:27:59.409Z,101144.31
2023-10-03T02:30:27.121Z,101140.97
2023-10-03T02:32:57.726Z,101131.72
2023-10-03T02:35:26.054Z,101135.38
2023-10-03T02:37:54.603Z,101137.31
2023-10-03T02:40:21.863Z,101122.25
2023-10-03T02:42:50.516Z,101121.88
2023-10-03T02:45:17.796Z,101113.22
2023-10-03T02:47:45.328Z,101113.53
2023-10-03T02:50:13.989Z,101108.25
2023-10-03T02:52:41.260Z,101103.88
2023-10-03T02:55:09.592Z,101092.25
2023-10-03T02:57:37.794Z,101091.00
2023-10-03T03:00:06.581Z,101088.44
2023-10-03T03:02:33.941Z,101076.66
2023-10-03T03:05:01.221Z,101081.13
2023-10-03T03:07:29.807Z,101068.25
2023-10-03T03:09:57.019Z,101055.94
2023-10-03T03:12:24.273Z,101052.81
2023-10-03T03:14:51.657Z,101046.66
2023-10-03T03:17:19.049Z,101047.00
2023-10-03T03:19:46.333Z,101048.97
2023-10-03T03:22:13.727Z,101052.38
2023-10-03T03:24:42.453Z,101043.34
2023-10-03T03:27:09.993Z,101044.03
2023-10-03T03:29:37.247Z,101040.69
2023-10-03T03:32:05.128Z,101036.38
2023-10-03T03:34:32.460Z,101035.03
2023-10-03T03:36:59.741Z,101032.53
2023-10-03T03:39:26.995Z,101019.03
2023-10-03T03:41:55.844Z,101011.03
2023-10-03T03:44:23.236Z,101006.34
2023-10-03T03:46:50.563Z,100998.53
2023-10-03T03:49:17.849Z,100995.69
2023-10-03T03:51:45.080Z,100994.38
2023-10-03T03:54:12.445Z,100986.19
2023-10-03T03:56:39.711Z,100986.03
2023-10-03T03:59:08.702Z,100973.34
2023-10-03T04:01:36.137Z,100971.00
2023-10-03T04:04:03.580Z,100975.69
2023-10-03T04:06:31.055Z,100964.00
2023-10-03T04:09:07.758Z,100961.84
2023-10-03T04:11:35.866Z,100961.31
2023-10-03T04:14:03.614Z,100957.66
2023-10-03T04:16:32.220Z,100950.28
2023-10-03T04:18:59.638Z,100950.63
2023-10-03T04:21:27.009Z,100953.47
2023-10-03T04:23:54.405Z,100948.91
2023-10-03T04:26:21.735Z,100956.97
2023-10-03T04:28:49.040Z,100952.47
2023-10-03T04:31:16.368Z,100950.31
2023-10-03T04:33:45.236Z,100936.63
2023-10-03T04:36:13.066Z,100942.47
2023-10-03T04:38:40.522Z,100940.63
2023-10-03T04:41:07.871Z,100946.63
2023-10-03T04:43:35.131Z,100930.13
2023-10-03T04:46:03.825Z,100931.16
2023-10-03T04:48:31.228Z,100923.34
2023-10-03T04:51:00.252Z,100917.50
2023-10-03T04:53:27.912Z,100922.34
2023-10-03T04:55:55.198Z,100918.16
2023-10-03T04:58:22.541Z,100923.16
2023-10-03T05:00:49.878Z,100921.88
2023-10-03T05:03:17.290Z,100910.69
2023-10-03T05:05:44.694Z,100911.84
2023-10-03T05:08:13.380Z,100903.34
2023-10-03T05:10:40.650Z,100901.00
2023-10-03T05:13:07.940Z,100897.31
2023-10-03T05:15:35.238Z,100891.94
2023-10-03T05:18:02.599Z,100886.97
2023-10-03T05:20:29.896Z,100884.31
2023-10-03T05:22:57.216Z,100870.75
2023-10-03T05:25:25.785Z,100862.59
2023-10-03T05:27:53.031Z,100859.25
2023-10-03T05:30:20.476Z,100864.16
2023-10-03T05:32:47.886Z,100862.69
2023-10-03T05:35:15.436Z,100846.69
2023-10-03T05:37:42.786Z,100848.00
2023-10-03T05:40:10.754Z,100844.78
2023-10-03T05:42:39.489Z,100839.69
2023-10-03T05:45:07.908Z,100842.00
2023-10-03T05:47:35.216Z,100837.94
2023-10-03T05:50:02.566Z,100832.28
2023-10-03T05:52:29.808Z,100824.38
2023-10-03T05:54:57.090Z,100825.56
2023-10-03T05:57:24.399Z,100822.75
2023-10-03T05:59:53.117Z,100813.78
2023-10-03T06:02:20.434Z,100823.13
2023-10-03T06:04:47.849Z,100809.94
2023-10-03T06:07:15.117Z,100812.25
2023-10-03T06:09:42.442Z,100806.91
2023-10-03T06:12:09.752Z,100812.72
2023-10-03T06:14:37.098Z,100818.84
2023-10-03T06:17:05.952Z,100817.63
2023-10-03T06:19:33.378Z,100822.88
2023-10-03T06:22:00.615Z,100824.84
2023-10-03T06:24:27.824Z,100813.75
2023-10-03T06:26:55.450Z,100810.59
2023-10-03T06:29:22.704Z,100797.94
2023-10-03T06:31:50.027Z,100795.81
2023-10-03T06:34:18.696Z,100777.94
2023-10-03T06:36:46.158Z,100775.53
2023-10-03T06:39:13.477Z,100782.34
2023-10-03T06:41:40.998Z,100780.88
2023-10-03T06:44:08.222Z,100787.00
2023-10-03T06:46:35.616Z,100775.06
2023-10-03T06:49:03.122Z,100779.28
2023-10-03T06:51:32.213Z,100782.16
2023-10-03T06:53:59.641Z,100781.47
2023-10-03T06:56:27.269Z,100789.63
2023-10-03T06:58:55.031Z,100788.09
2023-10-03T07:01:22.583Z,100771.19
2023-10-03T07:03:50.173Z,100770.47
2023-10-03T07:06:17.589Z,100763.84
2023-10-03T07:08:46.245Z,100776.72
2023-10-03T07:11:14.016Z,100769.69
2023-10-03T07:13:41.366Z,100760.84
2023-10-03T07:16:08.590Z,100757.97
2023-10-03T07:18:36.151Z,100750.22
2023-10-03T07:21:04.140Z,100745.28
2023-10-03T07:23:31.542Z,100727.38
2023-10-03T07:26:00.389Z,100713.63
2023-10-03T07:28:27.730Z,100714.88
2023-10-03T07:30:55.065Z,100729.75
2023-10-03T07:33:22.468Z,100735.09
2023-10-03T07:35:49.914Z,100730.59
2023-10-03T07:38:18.913Z,100730.81
2023-10-03T07:40:46.412Z,100726.56
2023-10-03T07:43:15.065Z,100712.53
2023-10-03T07:45:42.361Z,100733.41
2023-10-03T07:48:09.783Z,100730.31
2023-10-03T07:50:37.595Z,100730.75
2023-10-03T07:53:05.793Z,100739.06
2023-10-03T07:55:35.109Z,100735.75
2023-10-03T07:58:04.133Z,100723.72
2023-10-03T08:00:33.386Z,100726.97
2023-10-03T08:03:00.851Z,100730.66
2023-10-03T08:05:28.299Z,100734.28
2023-10-03T08:07:55.947Z,100723.81
2023-10-03T08:10:23.720Z,100719.91
2023-10-03T08:12:51.121Z,100726.09
2023-10-03T08:15:18.749Z,100713.22
2023-10-03T08:17:48.711Z,100698.34
2023-10-03T08:20:16.517Z,100719.16
2023-10-03T08:22:44.242Z,100716.09
2023-10-03T08:25:11.471Z,100724.09
2023-10-03T08:27:38.702Z,100709.13
2023-10-03T08:30:07.244Z,100703.69
2023-10-03T08:32:34.607Z,100703.22
2023-10-03T08:35:03.473Z,100698.06
2023-10-03T08:37:30.715Z,100698.25
2023-10-03T08:39:58.015Z,100686.28
2023-10-03T08:42:27.517Z,100692.28
2023-10-03T08:45:00.195Z,100684.41
2023-10-03T08:47:32.402Z,100695.72
2023-10-03T08:50:05.265Z,100683.56
2023-10-03T08:52:32.604Z,100673.00
2023-10-03T08:54:59.917Z,100671.34
2023-10-03T08:57:27.570Z,100676.75
2023-10-03T08:59:54.890Z,100670.88
2023-10-03T09:02:23.615Z,100675.81
2023-10-03T09:04:52.292Z,100663.00
2023-10-03T09:07:21.015Z,100666.50
2023-10-03T09:09:48.261Z,100657.03
2023-10-03T09:12:16.799Z,100672.09
2023-10-03T09:14:44.065Z,100670.88
2023-10-03T09:17:22.223Z,100654.94
2023-10-03T09:19:49.445Z,100659.75
2023-10-03T09:22:28.577Z,100658.19
2023-10-03T09:24:56.231Z,100657.50
2023-10-03T09:27:26.679Z,100645.91
2023-10-03T09:29:54.054Z,100648.25
2023-10-03T09:32:21.834Z,100647.09
2023-10-03T09:34:50.153Z,100651.19
2023-10-03T09:37:17.436Z,100650.25
2023-10-03T09:39:46.380Z,100644.25
2023-10-03T09:42:14.258Z,100643.13
2023-10-03T09:44:43.734Z,100644.13
2023-10-03T09:47:11.118Z,100636.25
2023-10-03T09:49:39.793Z,100635.19
2023-10-03T09:52:08.376Z,100639.06
2023-10-03T09:54:37.051Z,100628.38
2023-10-03T09:57:06.005Z,100627.28
2023-10-03T09:59:33.857Z,100625.66
2023-10-03T10:02:02.071Z,100620.72
2023-10-03T10:04:29.607Z,100612.22
2023-10-03T10:07:05.106Z,100615.66
2023-10-03T10:09:39.020Z,100595.91
2023-10-03T10:12:17.499Z,100620.66
2023-10-03T10:15:08.050Z,100605.47
2023-10-03T10:17:56.425Z,100609.59
2023-10-03T10:20:24.787Z,100624.66
2023-10-03T10:23:14.005Z,100621.94
2023-10-03T10:25:42.694Z,100633.09
2023-10-03T10:28:20.721Z,100632.59
2023-10-03T10:31:15.656Z,100629.19
2023-10-03T10:34:32.427Z,100622.03
2023-10-03T10:37:00.905Z,100624.25
2023-10-03T10:40:05.051Z,100617.34
2023-10-03T10:42:32.642Z,100607.19
2023-10-03T10:45:19.622Z,100596.38
2023-10-03T10:47:48.509Z,100591.19
2023-10-03T10:52:53.185Z,100609.88
2023-10-03T10:55:21.252Z,100611.66
2023-10-03T10:57:48.749Z,100600.66
2023-10-03T11:00:19.591Z,100601.84
2023-10-03T11:02:46.993Z,100601.03
2023-10-03T11:05:14.440Z,100595.44
2023-10-03T11:07:47.060Z,100606.78
2023-10-03T11:10:32.073Z,100611.13
2023-10-03T11:13:01.631Z,100618.34
2023-10-03T11:15:30.196Z,100628.72
2023-10-03T11:17:57.510Z,100610.06
2023-10-03T11:20:24.770Z,100606.59
2023-10-03T11:22:51.943Z,100605.44
2023-10-03T11:25:19.207Z,100615.44
2023-10-03T11:27:46.569Z,100627.00
2023-10-03T11:30:14.982Z,100625.34
2023-10-03T11:32:44.649Z,100620.72
2023-10-03T11:35:16.263Z,100635.84
2023-10-03T11:37:45.193Z,100626.97
2023-10-03T11:40:16.745Z,100643.94
2023-10-03T11:42:48.653Z,100636.97
2023-10-03T11:45:17.055Z,100635.16
2023-10-03T11:47:57.050Z,100639.50
2023-10-03T11:50:24.619Z,100637.06
2023-10-03T11:52:51.867Z,100632.38
2023-10-03T11:55:19.324Z,100632.28
2023-10-03T11:57:46.365Z,100641.78
2023-10-03T12:00:14.565Z,100646.47
2023-10-03T12:02:42.113Z,100660.09
2023-10-03T12:05:10.937Z,100658.38
2023-10-03T12:07:38.293Z,100654.91
2023-10-03T12:10:06.205Z,100637.56
2023-10-03T12:12:34.086Z,100657.50
2023-10-03T12:15:01.890Z,100653.75
2023-10-03T12:17:29.699Z,100652.22
2023-10-03T12:19:57.526Z,100665.59
2023-10-03T12:22:26.433Z,100677.41
2023-10-03T12:24:53.651Z,100671.25
2023-10-03T12:27:20.985Z,100686.59
2023-10-03T12:29:48.434Z,100689.44
2023-10-03T12:32:15.877Z,100688.38
2023-10-03T12:34:43.612Z,100686.59
2023-10-03T12:37:10.881Z,100684.34
2023-10-03T12:39:39.597Z,100689.88
2023-10-03T12:42:06.961Z,100686.59
2023-10-03T12:44:34.596Z,100682.25
2023-10-03T12:47:01.944Z,100686.94
2023-10-03T12:49:29.275Z,100681.81
2023-10-03T12:51:56.503Z,100672.41
2023-10-03T12:54:23.721Z,100673.22
2023-10-03T12:56:52.385Z,100680.28
2023-10-03T12:59:19.669Z,100673.91
2023-10-03T13:01:46.934Z,100670.16
2023-10-03T13:04:14.777Z,100672.53
2023-10-03T13:06:42.254Z,100671.34
2023-10-03T13:09:09.558Z,100659.44
2023-10-03T13:11:37.082Z,100664.16
2023-10-03T13:14:05.913Z,100667.09
2023-10-03T13:16:33.318Z,100659.91
2023-10-03T13:19:00.668Z,100661.47
2023-10-03T13:21:29.481Z,100664.75
2023-10-03T13:23:57.916Z,100678.31
2023-10-03T13:26:25.274Z,100676.09
2023-10-03T13:28:52.499Z,100665.38
2023-10-03T13:31:21.339Z,100655.47
2023-10-03T13:33:48.797Z,100663.59
2023-10-03T13:36:16.001Z,100665.13
2023-10-03T13:38:43.483Z,100659.59
2023-10-03T13:41:11.096Z,100660.06
2023-10-03T13:43:38.304Z,100666.44
2023-10-03T13:46:05.604Z,100672.47
2023-10-03T13:48:34.384Z,100665.75
2023-10-03T13:51:01.937Z,100667.88
2023-10-03T13:53:29.047Z,100667.75
2023-10-03T13:55:56.272Z,100665.25
2023-10-03T13:58:23.565Z,100660.34
2023-10-03T14:00:50.927Z,100666.22
2023-10-03T14:03:18.243Z,100672.69
2023-10-03T14:05:47.136Z,100667.94
2023-10-03T14:08:14.532Z,100660.66
2023-10-03T14:10:43.629Z,100664.22
2023-10-03T14:13:11.019Z,100660.06
2023-10-03T14:15:39.432Z,100660.28
2023-10-03T14:18:07.212Z,100677.81
2023-10-03T14:20:34.679Z,100672.66
2023-10-03T14:23:03.573Z,100667.00
2023-10-03T14:25:30.892Z,100671.81
2023-10-03T14:27:58.879Z,100670.75
2023-10-03T14:30:26.200Z,100675.47
2023-10-03T14:32:55.267Z,100663.25
2023-10-03T14:35:22.630Z,100655.38
2023-10-03T14:37:49.935Z,100659.00
2023-10-03T14:40:18.944Z,100662.16
2023-10-03T14:42:46.390Z,100656.63
2023-10-03T14:45:13.824Z,100662.63
2023-10-03T14:47:41.712Z,100667.78
2023-10-03T14:50:09.865Z,100670.47
2023-10-03T14:52:38.242Z,100656.28
2023-10-03T14:55:06.050Z,100661.53
2023-10-03T14:57:34.739Z,100658.22
2023-10-03T15:00:02.257Z,100672.06
2023-10-03T15:02:29.357Z,100664.56
2023-10-03T15:04:56.547Z,100665.38
2023-10-03T15:07:24.289Z,100670.78
2023-10-03T15:09:51.541Z,100680.66
2023-10-03T15:12:18.805Z,100680.56
2023-10-03T15:14:47.577Z,100680.19
2023-10-03T15:17:14.883Z,100669.16
2023-10-03T15:19:42.372Z,100672.59
2023-10-03T15:22:09.659Z,100664.78
2023-10-03T15:24:36.942Z,100671.13
2023-10-03T15:27:04.310Z,100676.09
2023-10-03T15:29:31.687Z,100672.78
2023-10-03T15:32:00.382Z,100670.31
2023-10-03T15:34:28.629Z,100662.81
2023-10-03T15:36:57.352Z,100665.00
2023-10-03T15:39:24.762Z,100659.34
2023-10-03T15:41:52.348Z,100661.25
2023-10-03T15:44:19.509Z,100658.75
2023-10-03T15:46:46.932Z,100662.28
2023-10-03T15:49:15.472Z,100661.25
2023-10-03T15:51:42.886Z,100659.28
2023-10-03T15:54:10.618Z,100661.47
2023-10-03T15:56:37.959Z,100667.09
2023-10-03T15:59:05.510Z,100659.91
2023-10-03T16:01:33.210Z,100663.03
2023-10-03T16:04:00.486Z,100677.72
2023-10-03T16:06:29.221Z,100670.72
2023-10-03T16:08:56.606Z,100670.59
2023-10-03T16:11:23.931Z,100668.75
2023-10-03T16:13:51.730Z,100679.38
2023-10-03T16:16:19.071Z,100754.81
2023-10-03T16:18:46.377Z,100825.94
2023-10-03T16:21:13.688Z,100815.97
2023-10-03T16:23:42.477Z,100836.59
2023-10-03T16:26:09.814Z,100849.28
2023-10-03T16:28:37.075Z,100822.09
2023-10-03T16:31:04.431Z,100834.19
2023-10-03T16:33:31.973Z,100851.84
2023-10-03T16:35:59.601Z,100853.41
2023-10-03T16:38:26.926Z,100871.47
2023-10-03T16:40:56.660Z,100892.69
2023-10-03T16:43:24.025Z,100893.44
2023-10-03T16:45:51.356Z,100886.13
2023-10-03T16:48:18.733Z,100888.94
2023-10-03T16:50:46.111Z,100889.09
2023-10-03T16:53:13.389Z,100888.69
2023-10-03T16:55:40.679Z,100898.75
2023-10-03T16:58:09.335Z,100911.41
2023-10-03T17:00:36.650Z,100925.38
2023-10-03T17:03:04.749Z,100932.19
2023-10-03T17:05:32.145Z,100959.03
2023-10-03T17:07:59.489Z,100946.16
2023-10-03T17:10:27.194Z,100948.91
2023-10-03T17:12:54.517Z,100945.06
2023-10-03T17:15:23.159Z,100936.50
2023-10-03T17:17:50.669Z,100914.56
2023-10-03T17:20:18.133Z,100906.47
2023-10-03T17:22:45.824Z,100904.97
2023-10-03T17:25:13.208Z,100920.56
2023-10-03T17:27:40.589Z,100940.78
2023-10-03T17:30:09.686Z,100922.63
2023-10-03T17:32:38.871Z,100931.59
2023-10-03T17:35:06.868Z,100938.91
2023-10-03T17:37:34.153Z,100950.91
2023-10-03T17:40:01.418Z,100964.38
2023-10-03T17:42:28.769Z,100972.53
2023-10-03T17:44:56.216Z,100984.06
2023-10-03T17:47:23.670Z,100981.38
2023-10-03T17:49:53.632Z,100991.06
2023-10-03T17:52:22.086Z,100989.13
2023-10-03T17:54:49.478Z,101001.94
2023-10-03T17:57:16.902Z,101012.63
2023-10-03T18:00:00.210Z,101011.03
2023-10-03T18:02:31.357Z,101027.06
2023-10-03T18:05:00.159Z,101046.13
2023-10-03T18:07:27.508Z,101060.16
2023-10-03T18:09:54.784Z,101058.13
2023-10-03T18:12:22.071Z,101056.47
2023-10-03T18:14:49.386Z,101045.25
2023-10-03T18:17:16.610Z,101052.78
2023-10-03T18:19:44.060Z,101069.19
2023-10-03T18:22:12.772Z,101079.22
2023-10-03T18:24:40.065Z,101082.97
2023-10-03T18:27:07.407Z,101098.00
2023-10-03T18:29:34.679Z,101098.69
2023-10-03T18:32:01.994Z,101096.50
2023-10-03T18:34:30.048Z,101099.00
2023-10-03T18:36:57.324Z,101109.38
2023-10-03T18:39:25.972Z,101108.03
2023-10-03T18:41:53.277Z,101107.34
2023-10-03T18:44:20.583Z,101117.00
2023-10-03T18:46:47.814Z,101139.09
2023-10-03T18:49:15.159Z,101152.13
2023-10-03T18:51:42.597Z,101160.47
2023-10-03T18:54:09.950Z,101155.31
2023-10-03T18:56:38.626Z,101158.16
2023-10-03T18:59:05.977Z,101173.50
2023-10-03T19:01:48.507Z,101167.53
2023-10-03T19:04:16.985Z,101201.22
2023-10-03T19:06:44.517Z,101220.28
2023-10-03T19:09:14.715Z,101222.13
2023-10-03T19:11:43.651Z,101227.63
2023-10-03T19:14:10.911Z,101224.44
2023-10-03T19:16:38.454Z,101230.97
2023-10-03T19:19:05.930Z,101235.44
2023-10-03T19:21:33.356Z,101240.94
2023-10-03T19:24:00.684Z,101264.16
2023-10-03T19:26:27.954Z,101262.31
2023-10-03T19:28:56.760Z,101295.53
2023-10-03T19:31:24.205Z,101288.16
2023-10-03T19:33:51.613Z,101299.00
2023-10-03T19:36:18.997Z,101304.34
2023-10-03T19:38:48.725Z,101311.31
2023-10-03T19:41:17.207Z,101309.59
2023-10-03T19:43:46.072Z,101317.94
2023-10-03T19:46:17.733Z,101317.25
2023-10-03T19:48:45.273Z,101317.22
2023-10-03T19:51:13.137Z,101334.06
2023-10-03T19:53:40.505Z,101345.19
2023-10-03T19:56:07.784Z,101360.16
2023-10-03T19:58:35.904Z,101357.47
2023-10-03T20:01:03.379Z,101353.97
2023-10-03T20:03:32.181Z,101375.44
2023-10-03T20:05:59.809Z,101382.47
2023-10-03T20:08:27.245Z,101399.75
2023-10-03T20:10:54.569Z,101405.41
2023-10-03T20:13:21.882Z,101401.38
2023-10-03T20:15:49.431Z,101406.19
2023-10-03T20:18:16.973Z,101414.31
2023-10-03T20:20:45.758Z,101409.59
2023-10-03T20:23:13.123Z,101429.66
2023-10-03T20:25:40.462Z,101427.28
2023-10-03T20:28:07.761Z,101443.81
2023-10-03T20:30:35.446Z,101446.09
2023-10-03T20:33:03.090Z,101451.91
2023-10-03T20:35:30.687Z,101472.41
2023-10-03T20:37:59.391Z,101481.44
2023-10-03T20:40:26.636Z,101478.47
2023-10-03T20:42:53.986Z,101481.56
2023-10-03T20:45:21.715Z,101489.84
2023-10-03T20:47:49.239Z,101500.94
2023-10-03T20:50:16.695Z,101500.09
2023-10-03T20:52:46.194Z,101508.38
2023-10-03T20:55:14.876Z,101520.03
2023-10-03T20:57:42.098Z,101512.88
2023-10-03T21:00:10.036Z,101540.28
2023-10-03T21:02:37.362Z,101546.91
2023-10-03T21:05:05.103Z,101548.06
2023-10-03T21:07:32.449Z,101553.69
2023-10-03T21:09:59.723Z,101555.50
2023-10-03T21:12:28.535Z,101564.09
2023-10-03T21:14:56.267Z,101575.03
2023-10-03T21:17:23.582Z,101580.91
2023-10-03T21:19:50.864Z,101581.66
2023-10-03T21:22:18.170Z,101589.78
2023-10-03T21:24:45.630Z,101595.25
2023-10-03T21:27:12.958Z,101602.97
2023-10-03T21:29:41.699Z,101595.94
2023-10-03T21:32:09.041Z,101605.06
2023-10-03T21:34:36.355Z,101605.41
2023-10-03T21:37:03.683Z,101610.16
2023-10-03T21:39:31.057Z,101615.63
2023-10-03T21:41:58.476Z,101624.06
2023-10-03T21:44:25.884Z,101625.03
2023-10-03T21:46:54.537Z,101634.56
2023-10-03T21:49:21.936Z,101638.50
2023-10-03T21:51:49.740Z,101640.03
2023-10-03T21:54:17.049Z,101649.03
2023-10-03T21:56:44.391Z,101654.50
2023-10-03T21:59:11.662Z,101656.59
2023-10-03T22:01:38.914Z,101659.69
2023-10-03T22:04:07.672Z,101661.22
2023-10-03T22:06:35.050Z,101662.63
2023-10-03T22:09:02.697Z,101663.78
2023-10-03T22:11:30.178Z,101663.94
2023-10-03T22:13:57.693Z,101666.59
2023-10-03T22:16:24.987Z,101675.00
2023-10-03T22:18:52.331Z,101680.75
2023-10-03T22:21:21.123Z,101686.06
2023-10-03T22:23:48.402Z,101691.25
2023-10-03T22:26:15.639Z,101683.56
2023-10-03T22:28:42.913Z,101691.28
2023-10-03T22:31:10.184Z,101698.41
2023-10-03T22:33:37.530Z,101705.00
2023-10-03T22:36:04.970Z,101711.75
2023-10-03T22:38:33.682Z,101708.94
2023-10-03T22:41:05.571Z,101705.28
2023-10-03T22:43:34.076Z,101708.25
2023-10-03T22:46:01.475Z,101710.47
2023-10-03T22:48:28.979Z,101709.63
2023-10-03T22:50:56.258Z,101714.13
2023-10-03T22:53:23.555Z,101720.69
2023-10-03T22:55:52.222Z,101722.38
2023-10-03T22:58:19.520Z,101733.00
2023-10-03T23:00:46.821Z,101737.34
2023-10-03T23:03:14.173Z,101737.06
2023-10-03T23:05:42.883Z,101742.97
2023-10-03T23:08:10.173Z,101745.75
2023-10-03T23:10:37.393Z,101759.19
2023-10-03T23:13:06.212Z,101763.53
2023-10-03T23:15:33.493Z,101760.75
2023-10-03T23:18:01.007Z,101765.22
2023-10-03T23:20:28.437Z,101762.03
2023-10-03T23:22:55.719Z,101765.38
2023-10-03T23:25:22.989Z,101769.47
2023-10-03T23:27:50.417Z,101773.22
2023-10-03T23:30:19.144Z,101766.78
2023-10-03T23:32:46.485Z,101772.09
2023-10-03T23:35:13.734Z,101776.31
2023-10-03T23:37:41.081Z,101776.91
2023-10-03T23:40:09.231Z,101775.22
2023-10-03T23:42:36.582Z,101774.22
2023-10-03T23:45:04.282Z,101791.91
2023-10-03T23:47:33.299Z,101781.38
2023-10-03T23:50:00.672Z,101792.31
2023-10-03T23:52:27.953Z,101798.88
2023-10-03T23:54:55.219Z,101802.66
2023-10-03T23:57:22.539Z,101802.81
2023-10-03T23:59:49.856Z,101799.72
